Time;durP1;ratioP1;P1;durP2;ratioP2;P2;SDS_P1;SDS_P2;PMS_P1;PMS_P2;Temp;Humidity;BMP_temperature;BMP_pressure;BME280_temperature;BME280_humidity;BME280_pressure;Samples;Min_cycle;Max_cycle;Signal;HPM_P1;HPM_P2
2024/01/02 00:00:04;;;;;;;;;0.00;0.00;;;;;;;;5088795;28;28472;-77
2024/01/02 00:02:29;;;;;;;;;0.00;0.00;;;;;;;;5080475;28;28953;-80
2024/01/02 00:04:55;;;;;;;;;0.00;0.00;;;;;;;;5083856;28;28914;-78
2024/01/02 00:07:20;;;;;;;;;0.33;0.33;;;;;;;;5089094;28;28794;-80
2024/01/02 00:09:45;;;;;;;;;0.00;0.00;;;;;;;;5084734;28;28458;-79
2024/01/02 00:12:10;;;;;;;;;0.00;0.00;;;;;;;;5087500;28;28769;-79
2024/01/02 00:14:36;;;;;;;;;0.00;0.00;;;;;;;;5069056;28;28551;-78
2024/01/02 00:17:01;;;;;;;;;2.00;0.00;;;;;;;;5067619;28;28418;-78
2024/01/02 00:19:26;;;;;;;;;2.00;0.00;;;;;;;;5068243;28;28851;-76
2024/01/02 00:21:52;;;;;;;;;0.00;0.00;;;;;;;;5068570;28;29166;-79
2024/01/02 00:24:18;;;;;;;;;0.00;0.00;;;;;;;;5068732;28;28470;-79
2024/01/02 00:26:43;;;;;;;;;0.00;0.00;;;;;;;;5068575;28;28757;-80
2024/01/02 00:29:08;;;;;;;;;0.67;0.67;;;;;;;;5067701;28;28803;-80
2024/01/02 00:31:33;;;;;;;;;0.00;0.00;;;;;;;;5069356;28;28754;-78
2024/01/02 00:33:58;;;;;;;;;0.00;0.00;;;;;;;;5067353;28;28856;-78
2024/01/02 00:36:24;;;;;;;;;0.67;0.67;;;;;;;;5080564;28;28821;-79
2024/01/02 00:38:49;;;;;;;;;1.00;0.00;;;;;;;;5070060;28;29226;-79
2024/01/02 00:41:14;;;;;;;;;0.00;0.00;;;;;;;;5075959;28;28670;-79
2024/01/02 00:43:39;;;;;;;;;0.00;0.00;;;;;;;;5074799;28;28859;-81
2024/01/02 00:46:04;;;;;;;;;0.00;0.00;;;;;;;;5088850;28;28757;-80
2024/01/02 00:48:30;;;;;;;;;0.67;0.00;;;;;;;;5088048;28;28512;-78
2024/01/02 00:50:55;;;;;;;;;2.00;1.00;;;;;;;;5075576;28;29739;-78
2024/01/02 00:53:20;;;;;;;;;2.33;0.00;;;;;;;;5067593;28;28539;-80
2024/01/02 00:55:46;;;;;;;;;0.00;0.00;;;;;;;;5067714;28;28827;-79
2024/01/02 00:58:11;;;;;;;;;0.00;0.00;;;;;;;;5081617;28;28423;-79
2024/01/02 01:00:36;;;;;;;;;0.00;0.00;;;;;;;;5081595;28;29912;-78
2024/01/02 01:03:02;;;;;;;;;0.00;0.00;;;;;;;;5081271;28;28599;-80
2024/01/02 01:05:27;;;;;;;;;0.00;0.00;;;;;;;;5057261;28;28790;-81
2024/01/02 01:07:52;;;;;;;;;1.00;1.00;;;;;;;;5070128;28;28525;-80
2024/01/02 01:10:18;;;;;;;;;0.00;0.00;;;;;;;;5077746;28;28581;-79
2024/01/02 01:12:45;;;;;;;;;0.00;0.00;;;;;;;;5067403;28;28631;-78
2024/01/02 01:15:10;;;;;;;;;0.67;0.67;;;;;;;;5067617;28;28490;-80
2024/01/02 01:17:35;;;;;;;;;0.00;0.00;;;;;;;;5067187;28;28890;-79
2024/01/02 01:20:00;;;;;;;;;0.67;0.67;;;;;;;;5067965;28;28533;-78
2024/01/02 01:22:26;;;;;;;;;1.00;0.00;;;;;;;;5049780;28;28735;-79
2024/01/02 01:24:51;;;;;;;;;0.00;0.00;;;;;;;;5067971;28;29038;-78
2024/01/02 01:27:16;;;;;;;;;0.00;0.00;;;;;;;;5068152;28;28858;-79
2024/01/02 01:29:41;;;;;;;;;0.00;0.00;;;;;;;;5068073;28;28651;-78
2024/01/02 01:32:07;;;;;;;;;0.00;0.00;;;;;;;;5077625;28;28496;-79
2024/01/02 01:34:33;;;;;;;;;1.00;0.33;;;;;;;;5071739;28;28501;-79
2024/01/02 01:36:58;;;;;;;;;0.00;0.00;;;;;;;;5085318;28;28713;-78
2024/01/02 01:39:23;;;;;;;;;0.00;0.00;;;;;;;;5080045;28;28759;-77
2024/01/02 01:41:48;;;;;;;;;0.00;0.00;;;;;;;;5078764;28;28405;-78
2024/01/02 01:44:14;;;;;;;;;0.00;0.00;;;;;;;;5078410;28;28438;-78
2024/01/02 01:46:40;;;;;;;;;0.67;0.67;;;;;;;;5070636;28;28765;-78
2024/01/02 01:49:06;;;;;;;;;0.00;0.00;;;;;;;;5066988;28;28750;-78
2024/01/02 01:51:32;;;;;;;;;0.00;0.00;;;;;;;;5082398;28;28548;-77
2024/01/02 01:54:00;;;;;;;;;1.00;0.00;;;;;;;;5069716;28;28087;-79
2024/01/02 01:56:25;;;;;;;;;0.00;0.00;;;;;;;;5070451;28;28556;-79
2024/01/02 01:58:51;;;;;;;;;0.00;0.00;;;;;;;;5051858;28;31011;-80
2024/01/02 02:01:16;;;;;;;;;0.00;0.00;;;;;;;;5074508;28;28032;-77
2024/01/02 02:03:41;;;;;;;;;0.67;0.00;;;;;;;;5074749;28;29356;-77
2024/01/02 02:06:07;;;;;;;;;0.00;0.00;;;;;;;;5077436;28;28793;-79
2024/01/02 02:08:32;;;;;;;;;1.00;0.00;;;;;;;;5075542;28;29544;-77
2024/01/02 02:10:57;;;;;;;;;1.00;0.00;;;;;;;;5088608;28;28467;-79
2024/01/02 02:13:23;;;;;;;;;0.00;0.00;;;;;;;;5084895;28;28953;-79
2024/01/02 02:15:49;;;;;;;;;0.00;0.00;;;;;;;;5072494;28;28844;-78
2024/01/02 02:18:14;;;;;;;;;0.00;0.00;;;;;;;;5083614;28;28810;-79
2024/01/02 02:20:39;;;;;;;;;1.00;0.00;;;;;;;;5070950;28;28877;-80
2024/01/02 02:23:05;;;;;;;;;0.00;0.00;;;;;;;;5071895;28;28801;-77
2024/01/02 02:25:30;;;;;;;;;2.33;0.00;;;;;;;;5056530;28;29702;-79
2024/01/02 02:27:55;;;;;;;;;0.00;0.00;;;;;;;;5052927;28;29786;-78
2024/01/02 02:30:20;;;;;;;;;1.00;0.00;;;;;;;;5075193;28;28539;-79
2024/01/02 02:32:46;;;;;;;;;0.00;0.00;;;;;;;;5072275;28;28693;-78
2024/01/02 02:35:11;;;;;;;;;0.00;0.00;;;;;;;;5070500;28;28842;-78
2024/01/02 02:37:37;;;;;;;;;0.00;0.00;;;;;;;;5076023;28;28627;-81
2024/01/02 02:40:03;;;;;;;;;0.00;0.00;;;;;;;;5082349;28;28472;-79
2024/01/02 02:42:28;;;;;;;;;0.00;0.00;;;;;;;;5053527;28;28513;-77
2024/01/02 02:44:53;;;;;;;;;0.00;0.00;;;;;;;;5084491;28;28922;-79
2024/01/02 02:47:18;;;;;;;;;1.00;1.00;;;;;;;;5072226;28;29982;-79
2024/01/02 02:49:44;;;;;;;;;0.00;0.00;;;;;;;;5090510;28;28578;-78
2024/01/02 02:52:09;;;;;;;;;0.00;0.00;;;;;;;;5073512;28;28762;-78
2024/01/02 02:54:34;;;;;;;;;0.00;0.00;;;;;;;;5071092;28;28506;-80
2024/01/02 02:57:00;;;;;;;;;0.00;0.00;;;;;;;;5086731;28;28626;-79
2024/01/02 02:59:25;;;;;;;;;1.00;0.00;;;;;;;;5091587;28;28489;-81
2024/01/02 03:01:50;;;;;;;;;0.00;0.00;;;;;;;;5090720;28;28937;-79
2024/01/02 03:04:15;;;;;;;;;0.00;0.00;;;;;;;;5091122;28;28907;-78
2024/01/02 03:06:41;;;;;;;;;0.00;0.00;;;;;;;;5089369;28;29576;-79
2024/01/02 03:09:06;;;;;;;;;1.33;1.00;;;;;;;;5077143;28;28850;-78
2024/01/02 03:11:31;;;;;;;;;0.00;0.00;;;;;;;;5057362;28;28474;-78
2024/01/02 03:13:56;;;;;;;;;0.00;0.00;;;;;;;;5074557;28;28736;-78
2024/01/02 03:16:23;;;;;;;;;2.00;0.00;;;;;;;;5051480;28;28586;-78
2024/01/02 03:18:48;;;;;;;;;0.00;0.00;;;;;;;;5080343;28;28770;-79
2024/01/02 03:21:13;;;;;;;;;0.00;0.00;;;;;;;;5084033;27;28785;-79
2024/01/02 03:23:38;;;;;;;;;0.00;0.00;;;;;;;;5084797;28;28779;-79
2024/01/02 03:26:04;;;;;;;;;0.00;0.00;;;;;;;;5079834;28;28500;-78
2024/01/02 03:28:30;;;;;;;;;0.00;0.00;;;;;;;;5068158;28;28911;-78
2024/01/02 03:30:56;;;;;;;;;0.00;0.00;;;;;;;;5078163;28;28686;-81
2024/01/02 03:33:21;;;;;;;;;0.33;0.00;;;;;;;;5060471;28;29546;-82
2024/01/02 03:35:47;;;;;;;;;0.00;0.00;;;;;;;;5066174;28;30722;-80
2024/01/02 03:38:12;;;;;;;;;1.00;0.00;;;;;;;;5084236;28;29059;-79
2024/01/02 03:40:38;;;;;;;;;0.00;0.00;;;;;;;;5085340;28;28580;-79
2024/01/02 03:43:03;;;;;;;;;0.00;0.00;;;;;;;;5055842;28;29224;-78
2024/01/02 03:45:28;;;;;;;;;0.00;0.00;;;;;;;;5070006;28;28491;-78
2024/01/02 03:47:53;;;;;;;;;1.00;0.00;;;;;;;;5050319;28;29563;-79
2024/01/02 03:50:19;;;;;;;;;0.00;0.00;;;;;;;;5069508;28;28462;-79
2024/01/02 03:52:44;;;;;;;;;1.00;1.00;;;;;;;;5070013;28;28485;-79
2024/01/02 03:55:10;;;;;;;;;0.00;0.00;;;;;;;;5060605;28;31260;-80
2024/01/02 03:57:35;;;;;;;;;0.00;0.00;;;;;;;;5075434;28;28528;-79
2024/01/02 04:00:00;;;;;;;;;0.00;0.00;;;;;;;;5068791;28;28553;-77
2024/01/02 04:02:26;;;;;;;;;1.00;0.00;;;;;;;;5049621;28;29548;-77
2024/01/02 04:04:51;;;;;;;;;0.00;0.00;;;;;;;;5068008;28;28755;-76
2024/01/02 04:07:16;;;;;;;;;0.00;0.00;;;;;;;;5057561;28;28771;-77
2024/01/02 04:09:42;;;;;;;;;0.00;0.00;;;;;;;;5066165;28;28527;-76
2024/01/02 04:12:07;;;;;;;;;0.00;0.00;;;;;;;;5072263;28;28425;-78
2024/01/02 04:14:33;;;;;;;;;0.00;0.00;;;;;;;;5069062;28;28484;-77
2024/01/02 04:16:58;;;;;;;;;0.00;0.00;;;;;;;;5068635;28;28822;-76
2024/01/02 04:19:23;;;;;;;;;0.67;0.00;;;;;;;;5047097;28;28638;-77
2024/01/02 04:21:48;;;;;;;;;0.00;0.00;;;;;;;;5057672;28;28957;-76
2024/01/02 04:24:14;;;;;;;;;0.00;0.00;;;;;;;;5069059;28;29315;-77
2024/01/02 04:26:40;;;;;;;;;0.00;0.00;;;;;;;;5050950;28;28727;-79
2024/01/02 04:29:05;;;;;;;;;0.00;0.00;;;;;;;;5069991;28;28899;-78
2024/01/02 04:31:31;;;;;;;;;0.00;0.00;;;;;;;;5070323;28;28462;-76
2024/01/02 04:33:56;;;;;;;;;1.00;0.00;;;;;;;;5068798;28;28477;-78
2024/01/02 04:36:24;;;;;;;;;0.00;0.00;;;;;;;;5052144;28;28810;-79
2024/01/02 04:38:49;;;;;;;;;0.00;0.00;;;;;;;;5072079;28;28951;-78
2024/01/02 04:41:15;;;;;;;;;0.00;0.00;;;;;;;;5073429;28;28686;-77
2024/01/02 04:43:40;;;;;;;;;1.00;0.00;;;;;;;;5051780;28;28549;-78
2024/01/02 04:46:06;;;;;;;;;0.00;0.00;;;;;;;;5052733;28;28887;-78
2024/01/02 04:48:31;;;;;;;;;0.00;0.00;;;;;;;;5068646;28;28517;-79
2024/01/02 04:50:56;;;;;;;;;0.00;0.00;;;;;;;;5080956;28;28539;-76
2024/01/02 04:53:21;;;;;;;;;0.00;0.00;;;;;;;;5066511;28;28486;-79
2024/01/02 04:55:47;;;;;;;;;0.00;0.00;;;;;;;;5069610;28;28597;-79
2024/01/02 04:58:12;;;;;;;;;0.00;0.00;;;;;;;;5069580;28;28425;-79
2024/01/02 05:00:37;;;;;;;;;0.00;0.00;;;;;;;;5051061;28;29196;-79
2024/01/02 05:03:03;;;;;;;;;0.00;0.00;;;;;;;;5085859;28;29365;-78
2024/01/02 05:05:28;;;;;;;;;1.00;1.00;;;;;;;;5068321;28;28513;-79
2024/01/02 05:07:53;;;;;;;;;0.00;0.00;;;;;;;;5066150;28;28561;-77
2024/01/02 05:10:19;;;;;;;;;0.00;0.00;;;;;;;;5066175;28;28645;-76
2024/01/02 05:12:45;;;;;;;;;0.00;0.00;;;;;;;;5066216;28;29310;-78
2024/01/02 05:15:10;;;;;;;;;0.00;0.00;;;;;;;;5068671;28;28516;-79
2024/01/02 05:17:35;;;;;;;;;0.00;0.00;;;;;;;;5070255;28;28490;-78
2024/01/02 05:20:01;;;;;;;;;0.00;0.00;;;;;;;;5068596;28;29336;-78
2024/01/02 05:22:26;;;;;;;;;0.00;0.00;;;;;;;;5073842;28;28501;-79
2024/01/02 05:24:51;;;;;;;;;0.00;0.00;;;;;;;;5061813;28;28473;-77
2024/01/02 05:27:17;;;;;;;;;0.00;0.00;;;;;;;;5068059;28;28483;-77
2024/01/02 05:29:42;;;;;;;;;0.00;0.00;;;;;;;;5067327;28;28639;-76
2024/01/02 05:32:07;;;;;;;;;0.00;0.00;;;;;;;;5051111;28;31494;-77
2024/01/02 05:34:33;;;;;;;;;0.00;0.00;;;;;;;;5054891;28;28816;-79
2024/01/02 05:36:58;;;;;;;;;0.00;0.00;;;;;;;;5070294;28;28564;-74
2024/01/02 05:39:23;;;;;;;;;1.00;0.00;;;;;;;;5065715;28;28865;-74
2024/01/02 05:41:48;;;;;;;;;0.00;0.00;;;;;;;;5066254;28;29235;-73
2024/01/02 05:44:14;;;;;;;;;0.00;0.00;;;;;;;;5072350;28;28456;-74
2024/01/02 05:46:39;;;;;;;;;0.00;0.00;;;;;;;;5084971;28;29047;-74
2024/01/02 05:49:04;;;;;;;;;0.00;0.00;;;;;;;;5071007;28;28944;-74
2024/01/02 05:51:30;;;;;;;;;0.00;0.00;;;;;;;;5066806;28;28906;-73
2024/01/02 05:53:55;;;;;;;;;0.00;0.00;;;;;;;;5082880;28;28900;-74
2024/01/02 05:56:20;;;;;;;;;0.00;0.00;;;;;;;;5036251;28;28649;-76
2024/01/02 05:58:45;;;;;;;;;0.00;0.00;;;;;;;;5066938;28;28992;-75
2024/01/02 06:01:11;;;;;;;;;1.00;0.00;;;;;;;;5046414;28;28650;-76
2024/01/02 06:03:36;;;;;;;;;0.00;0.00;;;;;;;;5057636;28;28931;-75
2024/01/02 06:06:02;;;;;;;;;0.00;0.00;;;;;;;;5057871;28;28572;-75
2024/01/02 06:08:28;;;;;;;;;0.00;0.00;;;;;;;;5070646;28;28512;-74
2024/01/02 06:10:53;;;;;;;;;0.00;0.00;;;;;;;;5076988;28;28469;-76
2024/01/02 06:13:18;;;;;;;;;0.00;0.00;;;;;;;;5063175;28;28592;-73
2024/01/02 06:15:44;;;;;;;;;0.33;0.00;;;;;;;;5060909;28;28721;-74
2024/01/02 06:18:09;;;;;;;;;0.00;0.00;;;;;;;;5071249;28;28456;-75
2024/01/02 06:20:34;;;;;;;;;0.00;0.00;;;;;;;;5060866;28;28449;-76
2024/01/02 06:22:59;;;;;;;;;0.00;0.00;;;;;;;;5063829;28;28673;-77
2024/01/02 06:25:24;;;;;;;;;0.00;0.00;;;;;;;;5060856;28;28681;-77
2024/01/02 06:27:50;;;;;;;;;0.67;0.00;;;;;;;;5066756;28;28950;-77
2024/01/02 06:30:17;;;;;;;;;0.00;0.00;;;;;;;;5060782;28;28165;-78
2024/01/02 06:32:42;;;;;;;;;0.00;0.00;;;;;;;;5065631;28;28557;-78
2024/01/02 06:35:08;;;;;;;;;0.67;0.00;;;;;;;;5058817;28;28621;-77
2024/01/02 06:37:33;;;;;;;;;0.67;0.00;;;;;;;;5047912;28;29439;-77
2024/01/02 06:39:58;;;;;;;;;1.00;0.00;;;;;;;;5066742;28;28666;-74
2024/01/02 06:42:24;;;;;;;;;0.00;0.00;;;;;;;;5066215;28;28675;-78
2024/01/02 06:44:49;;;;;;;;;0.00;0.00;;;;;;;;5063771;28;28570;-78
2024/01/02 06:47:14;;;;;;;;;0.00;0.00;;;;;;;;5049033;28;29142;-78
2024/01/02 06:49:39;;;;;;;;;1.00;0.00;;;;;;;;5066432;28;28613;-76
2024/01/02 06:52:05;;;;;;;;;0.00;0.00;;;;;;;;5067414;28;28582;-77
2024/01/02 06:54:30;;;;;;;;;0.00;0.00;;;;;;;;5052675;28;28819;-77
2024/01/02 06:56:56;;;;;;;;;0.00;0.00;;;;;;;;5061108;28;28704;-78
2024/01/02 06:59:21;;;;;;;;;0.00;0.00;;;;;;;;5055834;28;30011;-79
2024/01/02 07:01:47;;;;;;;;;0.00;0.00;;;;;;;;5074120;28;28605;-76
2024/01/02 07:04:12;;;;;;;;;1.00;0.00;;;;;;;;5071291;28;28949;-77
2024/01/02 07:06:39;;;;;;;;;0.67;0.00;;;;;;;;5063921;28;29355;-80
2024/01/02 07:09:04;;;;;;;;;0.00;0.00;;;;;;;;5071841;28;28803;-78
2024/01/02 07:11:29;;;;;;;;;0.67;0.00;;;;;;;;5069298;28;28647;-79
2024/01/02 07:13:55;;;;;;;;;0.00;0.00;;;;;;;;5068359;28;28495;-76
2024/01/02 07:16:20;;;;;;;;;0.00;0.00;;;;;;;;5077099;28;28884;-77
2024/01/02 07:18:48;;;;;;;;;0.67;0.00;;;;;;;;5092777;28;28563;-76
2024/01/02 07:21:13;;;;;;;;;0.00;0.00;;;;;;;;5090250;28;28682;-76
2024/01/02 07:23:38;;;;;;;;;0.00;0.00;;;;;;;;5066871;28;28504;-77
2024/01/02 07:26:03;;;;;;;;;0.00;0.00;;;;;;;;5072565;28;28903;-79
2024/01/02 07:28:29;;;;;;;;;0.00;0.00;;;;;;;;5091090;28;29440;-78
2024/01/02 07:30:54;;;;;;;;;0.00;0.00;;;;;;;;5083996;28;28525;-77
2024/01/02 07:33:20;;;;;;;;;0.00;0.00;;;;;;;;5074048;28;28887;-79
2024/01/02 07:35:45;;;;;;;;;0.00;0.00;;;;;;;;5087867;28;28834;-77
2024/01/02 07:38:10;;;;;;;;;0.00;0.00;;;;;;;;5073366;28;28723;-78
2024/01/02 07:40:35;;;;;;;;;0.00;0.00;;;;;;;;5054683;28;29097;-74
2024/01/02 07:43:01;;;;;;;;;0.00;0.00;;;;;;;;5058063;28;28724;-75
2024/01/02 07:45:28;;;;;;;;;0.00;0.00;;;;;;;;5056545;28;30138;-76
2024/01/02 07:47:53;;;;;;;;;0.00;0.00;;;;;;;;5055831;28;29110;-77
2024/01/02 07:50:19;;;;;;;;;0.33;0.00;;;;;;;;5057844;28;29839;-74
2024/01/02 07:52:47;;;;;;;;;0.00;0.00;;;;;;;;5052096;28;28580;-75
2024/01/02 07:55:12;;;;;;;;;0.00;0.00;;;;;;;;5072429;28;28471;-75
2024/01/02 07:57:37;;;;;;;;;0.33;0.33;;;;;;;;5071343;28;29074;-76
2024/01/02 08:00:03;;;;;;;;;0.00;0.00;;;;;;;;5072821;28;28639;-76
2024/01/02 08:02:29;;;;;;;;;0.00;0.00;;;;;;;;5083186;28;28473;-77
2024/01/02 08:04:54;;;;;;;;;0.00;0.00;;;;;;;;5072239;28;29568;-80
2024/01/02 08:07:20;;;;;;;;;0.00;0.00;;;;;;;;5054037;28;30502;-75
2024/01/02 08:09:45;;;;;;;;;0.67;0.00;;;;;;;;5074592;28;28592;-74
2024/01/02 08:12:10;;;;;;;;;0.67;0.00;;;;;;;;5052522;28;28548;-77
2024/01/02 08:14:35;;;;;;;;;0.00;0.00;;;;;;;;5062200;28;30787;-76
2024/01/02 08:17:00;;;;;;;;;0.00;0.00;;;;;;;;5087135;28;28854;-75
2024/01/02 08:19:26;;;;;;;;;0.00;0.00;;;;;;;;5080233;28;28638;-75
2024/01/02 08:21:51;;;;;;;;;0.67;0.00;;;;;;;;5080618;28;28698;-77
2024/01/02 08:24:17;;;;;;;;;0.67;0.67;;;;;;;;5065451;28;29540;-78
2024/01/02 08:26:42;;;;;;;;;0.00;0.00;;;;;;;;5063742;28;28486;-78
2024/01/02 08:29:08;;;;;;;;;0.00;0.00;;;;;;;;5072101;28;28645;-76
2024/01/02 08:31:34;;;;;;;;;0.33;0.00;;;;;;;;5049035;28;28142;-74
2024/01/02 08:33:59;;;;;;;;;0.00;0.00;;;;;;;;5084216;28;27925;-75
2024/01/02 08:36:27;;;;;;;;;0.00;0.00;;;;;;;;5089326;28;28915;-77
2024/01/02 08:38:52;;;;;;;;;0.00;0.00;;;;;;;;5064760;28;28859;-76
2024/01/02 08:41:17;;;;;;;;;0.00;0.00;;;;;;;;5083010;28;28734;-77
2024/01/02 08:43:43;;;;;;;;;0.00;0.00;;;;;;;;5081131;28;28981;-77
2024/01/02 08:46:08;;;;;;;;;0.00;0.00;;;;;;;;5070387;28;28757;-77
2024/01/02 08:48:34;;;;;;;;;0.00;0.00;;;;;;;;5075212;28;28618;-76
2024/01/02 08:50:59;;;;;;;;;0.00;0.00;;;;;;;;5080434;28;28618;-76
2024/01/02 08:53:24;;;;;;;;;0.00;0.00;;;;;;;;5064039;28;30434;-77
2024/01/02 08:55:50;;;;;;;;;1.67;0.00;;;;;;;;5062689;28;29856;-77
2024/01/02 08:58:15;;;;;;;;;0.00;0.00;;;;;;;;5084133;28;28481;-77
2024/01/02 09:00:41;;;;;;;;;0.33;0.33;;;;;;;;5084560;28;28441;-76
2024/01/02 09:03:08;;;;;;;;;0.00;0.00;;;;;;;;5076394;28;28911;-77
2024/01/02 09:05:33;;;;;;;;;3.33;0.67;;;;;;;;5079946;28;28462;-77
2024/01/02 09:08:00;;;;;;;;;0.00;0.00;;;;;;;;5080038;28;28824;-74
2024/01/02 09:10:25;;;;;;;;;0.00;0.00;;;;;;;;5066634;28;28605;-75
2024/01/02 09:12:50;;;;;;;;;0.00;0.00;;;;;;;;5052392;28;30465;-80
2024/01/02 09:15:16;;;;;;;;;1.33;0.67;;;;;;;;5065703;28;28382;-73
2024/01/02 09:17:41;;;;;;;;;0.00;0.00;;;;;;;;5056717;28;29017;-74
2024/01/02 09:20:07;;;;;;;;;0.67;0.00;;;;;;;;5068651;28;28565;-74
2024/01/02 09:22:32;;;;;;;;;0.00;0.00;;;;;;;;5073398;28;28506;-76
2024/01/02 09:25:00;;;;;;;;;0.00;0.00;;;;;;;;5069131;28;28790;-77
2024/01/02 09:27:29;;;;;;;;;0.00;0.00;;;;;;;;5050418;28;29636;-78
2024/01/02 09:29:56;;;;;;;;;0.00;0.00;;;;;;;;5072191;28;28530;-75
2024/01/02 09:32:21;;;;;;;;;0.67;0.67;;;;;;;;5050560;28;29346;-73
2024/01/02 09:34:46;;;;;;;;;1.67;0.33;;;;;;;;5074804;28;29651;-75
2024/01/02 09:37:12;;;;;;;;;1.00;1.00;;;;;;;;5084964;28;28840;-75
2024/01/02 09:39:37;;;;;;;;;1.67;0.33;;;;;;;;5069561;28;28797;-74
2024/01/02 09:42:21;;;;;;;;;0.00;0.00;;;;;;;;5054047;28;28936;-76
2024/01/02 09:45:02;;;;;;;;;1.00;1.00;;;;;;;;5064292;28;28528;-77
2024/01/02 09:48:00;;;;;;;;;1.00;0.00;;;;;;;;5068032;28;28657;-74
2024/01/02 09:50:33;;;;;;;;;0.00;0.00;;;;;;;;5035016;28;28472;-77
2024/01/02 09:53:17;;;;;;;;;0.00;0.00;;;;;;;;5068399;28;28395;-74
2024/01/02 09:55:43;;;;;;;;;0.00;0.00;;;;;;;;5070845;28;28826;-75
2024/01/02 09:58:17;;;;;;;;;0.00;0.00;;;;;;;;5050970;28;28755;-76
2024/01/02 10:00:52;;;;;;;;;0.00;0.00;;;;;;;;5069970;28;28524;-76
2024/01/02 10:03:23;;;;;;;;;0.00;0.00;;;;;;;;5070105;28;28548;-75
2024/01/02 10:05:49;;;;;;;;;0.00;0.00;;;;;;;;5069558;28;28583;-76
2024/01/02 10:08:33;;;;;;;;;0.75;0.00;;;;;;;;5050695;28;29395;-74
2024/01/02 10:11:11;;;;;;;;;0.00;0.00;;;;;;;;5050406;28;28985;-75
2024/01/02 10:13:39;;;;;;;;;2.00;1.00;;;;;;;;5069236;28;28886;-76
2024/01/02 10:16:13;;;;;;;;;1.00;0.00;;;;;;;;5050788;28;30250;-76
2024/01/02 10:18:41;;;;;;;;;0.00;0.00;;;;;;;;5067849;28;28763;-76
2024/01/02 10:21:18;;;;;;;;;1.00;0.00;;;;;;;;5065239;28;28607;-79
2024/01/02 10:23:44;;;;;;;;;0.33;0.00;;;;;;;;5047561;28;29194;-76
2024/01/02 10:26:09;;;;;;;;;0.00;0.00;;;;;;;;5043664;28;30102;-77
2024/01/02 10:28:35;;;;;;;;;0.00;0.00;;;;;;;;5069300;28;28512;-75
2024/01/02 10:31:11;;;;;;;;;0.00;0.00;;;;;;;;5075484;28;28551;-78
2024/01/02 10:33:38;;;;;;;;;0.33;0.00;;;;;;;;5081254;28;28623;-76
2024/01/02 10:36:04;;;;;;;;;0.00;0.00;;;;;;;;5068539;28;28580;-77
2024/01/02 10:38:29;;;;;;;;;0.00;0.00;;;;;;;;5077367;28;28546;-75
2024/01/02 10:41:03;;;;;;;;;0.67;0.00;;;;;;;;5059145;28;28581;-75
2024/01/02 10:43:30;;;;;;;;;1.00;1.00;;;;;;;;5071385;28;28553;-75
2024/01/02 10:45:58;;;;;;;;;1.00;0.00;;;;;;;;5078405;28;29437;-76
2024/01/02 10:48:42;;;;;;;;;0.00;0.00;;;;;;;;5073640;28;28628;-76
2024/01/02 10:51:11;;;;;;;;;0.00;0.00;;;;;;;;5053247;28;28442;-76
2024/01/02 10:53:44;;;;;;;;;2.00;0.00;;;;;;;;5054729;28;30429;-78
2024/01/02 10:56:27;;;;;;;;;1.00;1.00;;;;;;;;5058635;28;30255;-78
2024/01/02 10:58:57;;;;;;;;;1.00;0.00;;;;;;;;5065308;28;28544;-76
2024/01/02 11:01:35;;;;;;;;;1.33;0.00;;;;;;;;5204384;22;28576;-79
2024/01/02 11:04:16;;;;;;;;;0.67;0.67;;;;;;;;5079068;28;29468;-83
2024/01/02 11:06:50;;;;;;;;;1.50;0.00;;;;;;;;5083229;27;28616;-79
2024/01/02 11:09:45;;;;;;;;;0.00;0.00;;;;;;;;5069640;28;28543;-79
2024/01/02 11:12:12;;;;;;;;;0.00;0.00;;;;;;;;5014563;28;28894;-78
2024/01/02 11:14:40;;;;;;;;;1.33;0.00;;;;;;;;5079543;28;28892;-77
2024/01/02 11:17:05;;;;;;;;;3.67;2.33;;;;;;;;5088464;27;29034;-77
2024/01/02 11:19:35;;;;;;;;;0.67;0.67;;;;;;;;5088041;28;28586;-76
2024/01/02 11:22:20;;;;;;;;;1.00;1.00;;;;;;;;5088599;28;28595;-76
2024/01/02 11:24:49;;;;;;;;;1.67;1.00;;;;;;;;5069520;28;29274;-75
2024/01/02 11:27:17;;;;;;;;;2.00;0.25;;;;;;;;5087759;28;28671;-76
2024/01/02 11:29:43;;;;;;;;;6.50;1.00;;;;;;;;5087359;28;28595;-74
2024/01/02 11:32:12;;;;;;;;;3.00;2.00;;;;;;;;5087778;28;28579;-75
2024/01/02 11:34:59;;;;;;;;;0.25;0.25;;;;;;;;5087886;28;28593;-78
2024/01/02 11:37:33;;;;;;;;;1.00;1.00;;;;;;;;5083331;28;28817;-74
2024/01/02 11:40:09;;;;;;;;;4.00;2.00;;;;;;;;5088286;28;28649;-75
2024/01/02 11:42:40;;;;;;;;;1.67;1.00;;;;;;;;5066785;28;28470;-75
2024/01/02 11:45:12;;;;;;;;;1.00;1.00;;;;;;;;5081379;28;28469;-75
2024/01/02 11:47:41;;;;;;;;;1.00;1.00;;;;;;;;5086426;28;30011;-75
2024/01/02 11:50:07;;;;;;;;;2.50;1.00;;;;;;;;5089299;28;28511;-75
2024/01/02 11:52:35;;;;;;;;;0.00;0.00;;;;;;;;5089524;28;28903;-76
2024/01/02 11:55:19;;;;;;;;;1.00;1.00;;;;;;;;5089469;28;28852;-75
2024/01/02 11:57:44;;;;;;;;;0.00;0.00;;;;;;;;5082321;28;29795;-73
2024/01/02 12:00:09;;;;;;;;;0.33;0.33;;;;;;;;5065296;28;28406;-74
2024/01/02 12:02:55;;;;;;;;;0.00;0.00;;;;;;;;5088511;28;29404;-75
2024/01/02 12:05:24;;;;;;;;;2.33;1.33;;;;;;;;5070913;28;30184;-76
2024/01/02 12:07:49;;;;;;;;;4.00;3.00;;;;;;;;5070576;28;30029;-75
2024/01/02 12:10:15;;;;;;;;;0.00;0.00;;;;;;;;5067933;28;28874;-75
2024/01/02 12:12:48;;;;;;;;;6.00;6.00;;;;;;;;5088498;27;28549;-74
2024/01/02 12:15:16;;;;;;;;;1.33;1.33;;;;;;;;5084564;28;28961;-75
2024/01/02 12:17:53;;;;;;;;;1.75;1.75;;;;;;;;5079518;28;29313;-77
2024/01/02 12:20:18;;;;;;;;;0.50;0.50;;;;;;;;5087351;28;28473;-75
2024/01/02 12:22:52;;;;;;;;;0.33;0.33;;;;;;;;5065057;28;28423;-84
2024/01/02 12:25:17;;;;;;;;;0.00;0.00;;;;;;;;5068481;28;30223;-74
2024/01/02 12:27:45;;;;;;;;;2.33;1.33;;;;;;;;5087217;28;29279;-75
2024/01/02 12:30:14;;;;;;;;;0.00;0.00;;;;;;;;5070256;28;28900;-76
2024/01/02 12:32:39;;;;;;;;;1.00;1.00;;;;;;;;5088279;28;28684;-74
2024/01/02 12:35:09;;;;;;;;;0.00;0.00;;;;;;;;5087888;28;28405;-73
2024/01/02 12:37:45;;;;;;;;;0.00;0.00;;;;;;;;5087220;28;29488;-74
2024/01/02 12:40:11;;;;;;;;;1.25;0.00;;;;;;;;5085533;28;28718;-74
2024/01/02 12:42:39;;;;;;;;;1.33;1.00;;;;;;;;5089239;28;28539;-75
2024/01/02 12:45:06;;;;;;;;;0.00;0.00;;;;;;;;5070665;28;29520;-75
2024/01/02 12:47:32;;;;;;;;;2.00;0.00;;;;;;;;5070151;28;29864;-75
2024/01/02 12:50:05;;;;;;;;;4.00;1.00;;;;;;;;5088442;28;28555;-76
2024/01/02 12:52:35;;;;;;;;;1.00;0.00;;;;;;;;5070143;28;28434;-75
2024/01/02 12:55:02;;;;;;;;;0.00;0.00;;;;;;;;5079716;28;28896;-75
2024/01/02 12:57:28;;;;;;;;;0.00;0.00;;;;;;;;5068808;28;29224;-73
2024/01/02 12:59:53;;;;;;;;;1.33;1.00;;;;;;;;5086209;28;29127;-73
2024/01/02 13:02:18;;;;;;;;;1.00;1.00;;;;;;;;5082467;28;28885;-76
2024/01/02 13:04:44;;;;;;;;;1.00;0.00;;;;;;;;5086137;28;28536;-75
2024/01/02 13:07:11;;;;;;;;;1.00;1.00;;;;;;;;5087183;28;28707;-76
2024/01/02 13:09:43;;;;;;;;;2.75;1.00;;;;;;;;5083082;27;28622;-75
2024/01/02 13:12:10;;;;;;;;;0.00;0.00;;;;;;;;5083552;28;28628;-74
2024/01/02 13:14:36;;;;;;;;;2.25;1.00;;;;;;;;5067189;28;29816;-76
2024/01/02 13:17:04;;;;;;;;;1.00;1.00;;;;;;;;5068159;28;29778;-77
2024/01/02 13:19:30;;;;;;;;;1.25;1.25;;;;;;;;5085791;28;28810;-76
2024/01/02 13:21:55;;;;;;;;;0.67;0.67;;;;;;;;5061830;28;28604;-76
2024/01/02 13:24:23;;;;;;;;;2.00;2.00;;;;;;;;5084971;28;28827;-76
2024/01/02 13:26:49;;;;;;;;;3.75;2.00;;;;;;;;5087144;28;29754;-74
2024/01/02 13:29:15;;;;;;;;;4.33;3.00;;;;;;;;5086353;27;28641;-73
2024/01/02 13:31:41;;;;;;;;;2.00;2.00;;;;;;;;5068301;28;28938;-76
2024/01/02 13:34:10;;;;;;;;;0.00;0.00;;;;;;;;5086224;28;28972;-77
2024/01/02 13:36:44;;;;;;;;;0.67;0.67;;;;;;;;5085359;27;28593;-72
2024/01/02 13:39:10;;;;;;;;;1.50;1.00;;;;;;;;5080330;28;28555;-74
2024/01/02 13:41:41;;;;;;;;;1.00;1.00;;;;;;;;5086455;28;28528;-75
2024/01/02 13:44:07;;;;;;;;;2.00;1.00;;;;;;;;5075446;28;28851;-77
2024/01/02 13:46:33;;;;;;;;;4.00;2.67;;;;;;;;5086544;28;28816;-76
2024/01/02 13:49:02;;;;;;;;;1.00;1.00;;;;;;;;5087158;28;28536;-74
2024/01/02 13:51:30;;;;;;;;;0.00;0.00;;;;;;;;5086179;28;28572;-75
2024/01/02 13:54:02;;;;;;;;;2.00;1.00;;;;;;;;5067795;28;30826;-75
2024/01/02 13:56:28;;;;;;;;;0.00;0.00;;;;;;;;5087013;28;28776;-73
2024/01/02 13:59:01;;;;;;;;;1.00;1.00;;;;;;;;5087312;28;28584;-76
2024/01/02 14:01:41;;;;;;;;;0.33;0.33;;;;;;;;5086045;27;28555;-75
2024/01/02 14:04:06;;;;;;;;;1.67;0.00;;;;;;;;5081519;27;28642;-74
2024/01/02 14:06:33;;;;;;;;;1.00;1.00;;;;;;;;5088935;28;28539;-83
2024/01/02 14:09:08;;;;;;;;;1.00;1.00;;;;;;;;5089408;28;28440;-82
2024/01/02 14:11:34;;;;;;;;;1.00;1.00;;;;;;;;5069610;28;28741;-83
2024/01/02 14:14:08;;;;;;;;;1.00;1.00;;;;;;;;5072257;28;29682;-83
2024/01/02 14:16:33;;;;;;;;;1.00;1.00;;;;;;;;5072825;28;30349;-85
2024/01/02 14:18:59;;;;;;;;;1.00;1.00;;;;;;;;5092206;28;28773;-82
2024/01/02 14:21:25;;;;;;;;;2.67;2.00;;;;;;;;5091746;28;28580;-83
2024/01/02 14:24:08;;;;;;;;;1.00;0.00;;;;;;;;5090865;28;29058;-82
2024/01/02 14:26:33;;;;;;;;;5.00;1.33;;;;;;;;5073784;28;30372;-83
2024/01/02 14:29:00;;;;;;;;;1.33;1.00;;;;;;;;5064014;28;28426;-82
2024/01/02 14:31:42;;;;;;;;;1.00;1.00;;;;;;;;5090358;28;28383;-82
2024/01/02 14:34:14;;;;;;;;;1.00;1.00;;;;;;;;5066428;28;30189;-84
2024/01/02 14:36:54;;;;;;;;;0.00;0.00;;;;;;;;5076488;28;29899;-83
2024/01/02 14:39:25;;;;;;;;;1.00;0.50;;;;;;;;5075169;28;28698;-83
2024/01/02 14:42:22;;;;;;;;;0.00;0.00;;;;;;;;5092526;28;28738;-83